sensor_id;sensor_type;location;lat;lon;timestamp;P1;durP1;ratioP1;P2;durP2;ratioP2
2119;SDS011;1066;52.540;13.420;2023-04-24T00:01:12;3.70;;;3.40;;
2119;SDS011;1066;52.540;13.420;2023-04-24T00:04:31;4.47;;;4.07;;
2119;SDS011;1066;52.540;13.420;2023-04-24T00:07:49;4.80;;;4.30;;
2119;SDS011;1066;52.540;13.420;2023-04-24T00:11:07;4.47;;;4.07;;
2119;SDS011;1066;52.540;13.420;2023-04-24T00:14:27;4.07;;;3.70;;
2119;SDS011;1066;52.540;13.420;2023-04-24T00:17:45;4.77;;;4.27;;
2119;SDS011;1066;52.540;13.420;2023-04-24T00:21:03;4.30;;;3.90;;
2119;SDS011;1066;52.540;13.420;2023-04-24T00:24:21;4.53;;;4.13;;
2119;SDS011;1066;52.540;13.420;2023-04-24T00:27:39;4.57;;;4.27;;
2119;SDS011;1066;52.540;13.420;2023-04-24T00:30:56;6.47;;;4.80;;
2119;SDS011;1066;52.540;13.420;2023-04-24T00:34:14;5.10;;;4.70;;
2119;SDS011;1066;52.540;13.420;2023-04-24T00:37:32;4.23;;;3.83;;
2119;SDS011;1066;52.540;13.420;2023-04-24T00:40:50;5.20;;;4.80;;
2119;SDS011;1066;52.540;13.420;2023-04-24T00:44:08;5.30;;;4.17;;
2119;SDS011;1066;52.540;13.420;2023-04-24T00:47:26;4.57;;;4.17;;
2119;SDS011;1066;52.540;13.420;2023-04-24T00:50:44;5.63;;;4.50;;
2119;SDS011;1066;52.540;13.420;2023-04-24T00:54:02;4.97;;;4.57;;
2119;SDS011;1066;52.540;13.420;2023-04-24T00:57:20;4.37;;;3.90;;
2119;SDS011;1066;52.540;13.420;2023-04-24T01:00:38;4.60;;;4.20;;
2119;SDS011;1066;52.540;13.420;2023-04-24T01:03:57;4.50;;;4.10;;
2119;SDS011;1066;52.540;13.420;2023-04-24T01:07:17;4.23;;;3.93;;
2119;SDS011;1066;52.540;13.420;2023-04-24T01:10:36;4.60;;;4.20;;
2119;SDS011;1066;52.540;13.420;2023-04-24T01:13:55;6.00;;;5.40;;
2119;SDS011;1066;52.540;13.420;2023-04-24T01:17:14;5.23;;;4.80;;
2119;SDS011;1066;52.540;13.420;2023-04-24T01:20:32;5.03;;;4.53;;
2119;SDS011;1066;52.540;13.420;2023-04-24T01:23:52;5.27;;;4.77;;
2119;SDS011;1066;52.540;13.420;2023-04-24T01:27:10;4.40;;;4.00;;
2119;SDS011;1066;52.540;13.420;2023-04-24T01:30:29;5.67;;;4.33;;
2119;SDS011;1066;52.540;13.420;2023-04-24T01:33:47;5.20;;;4.80;;
2119;SDS011;1066;52.540;13.420;2023-04-24T01:37:05;5.03;;;4.37;;
2119;SDS011;1066;52.540;13.420;2023-04-24T01:40:23;4.80;;;4.17;;
2119;SDS011;1066;52.540;13.420;2023-04-24T01:43:41;4.80;;;4.40;;
2119;SDS011;1066;52.540;13.420;2023-04-24T01:46:59;4.73;;;4.20;;
2119;SDS011;1066;52.540;13.420;2023-04-24T01:50:18;3.80;;;3.50;;
2119;SDS011;1066;52.540;13.420;2023-04-24T01:53:35;5.53;;;4.37;;
2119;SDS011;1066;52.540;13.420;2023-04-24T01:56:53;4.50;;;4.10;;
2119;SDS011;1066;52.540;13.420;2023-04-24T02:00:11;5.10;;;4.60;;
2119;SDS011;1066;52.540;13.420;2023-04-24T02:03:30;4.20;;;3.90;;
2119;SDS011;1066;52.540;13.420;2023-04-24T02:06:48;4.70;;;4.40;;
2119;SDS011;1066;52.540;13.420;2023-04-24T02:10:06;6.23;;;4.60;;
2119;SDS011;1066;52.540;13.420;2023-04-24T02:13:26;4.97;;;4.60;;
2119;SDS011;1066;52.540;13.420;2023-04-24T02:16:44;5.17;;;4.77;;
2119;SDS011;1066;52.540;13.420;2023-04-24T02:20:02;4.53;;;4.13;;
2119;SDS011;1066;52.540;13.420;2023-04-24T02:23:20;5.63;;;5.10;;
2119;SDS011;1066;52.540;13.420;2023-04-24T02:26:38;5.20;;;4.80;;
2119;SDS011;1066;52.540;13.420;2023-04-24T02:29:55;4.97;;;4.57;;
2119;SDS011;1066;52.540;13.420;2023-04-24T02:33:13;5.00;;;4.60;;
2119;SDS011;1066;52.540;13.420;2023-04-24T02:36:34;6.10;;;5.60;;
2119;SDS011;1066;52.540;13.420;2023-04-24T02:39:52;5.57;;;5.00;;
2119;SDS011;1066;52.540;13.420;2023-04-24T02:43:10;6.93;;;5.43;;
2119;SDS011;1066;52.540;13.420;2023-04-24T02:46:28;7.10;;;4.90;;
2119;SDS011;1066;52.540;13.420;2023-04-24T02:49:45;8.37;;;5.20;;
2119;SDS011;1066;52.540;13.420;2023-04-24T02:53:03;6.20;;;5.70;;
2119;SDS011;1066;52.540;13.420;2023-04-24T02:56:21;5.93;;;5.43;;
2119;SDS011;1066;52.540;13.420;2023-04-24T02:59:40;5.53;;;5.03;;
2119;SDS011;1066;52.540;13.420;2023-04-24T03:02:57;6.10;;;5.50;;
2119;SDS011;1066;52.540;13.420;2023-04-24T03:06:15;6.13;;;5.60;;
2119;SDS011;1066;52.540;13.420;2023-04-24T03:09:33;6.70;;;5.93;;
2119;SDS011;1066;52.540;13.420;2023-04-24T03:12:51;6.23;;;5.73;;
2119;SDS011;1066;52.540;13.420;2023-04-24T03:16:09;6.97;;;5.00;;
2119;SDS011;1066;52.540;13.420;2023-04-24T03:19:27;8.40;;;5.90;;
2119;SDS011;1066;52.540;13.420;2023-04-24T03:22:45;6.17;;;5.57;;
2119;SDS011;1066;52.540;13.420;2023-04-24T03:26:02;6.60;;;6.10;;
2119;SDS011;1066;52.540;13.420;2023-04-24T03:29:21;8.70;;;7.80;;
2119;SDS011;1066;52.540;13.420;2023-04-24T03:32:39;10.03;;;9.03;;
2119;SDS011;1066;52.540;13.420;2023-04-24T03:35:57;7.10;;;6.43;;
2119;SDS011;1066;52.540;13.420;2023-04-24T03:39:15;6.90;;;6.30;;
2119;SDS011;1066;52.540;13.420;2023-04-24T03:42:33;7.00;;;6.30;;
2119;SDS011;1066;52.540;13.420;2023-04-24T03:45:52;7.57;;;6.10;;
2119;SDS011;1066;52.540;13.420;2023-04-24T03:49:10;7.67;;;6.87;;
2119;SDS011;1066;52.540;13.420;2023-04-24T03:52:28;7.90;;;7.10;;
2119;SDS011;1066;52.540;13.420;2023-04-24T03:55:46;6.27;;;5.67;;
2119;SDS011;1066;52.540;13.420;2023-04-24T03:59:04;6.37;;;5.87;;
2119;SDS011;1066;52.540;13.420;2023-04-24T04:02:22;9.33;;;8.33;;
2119;SDS011;1066;52.540;13.420;2023-04-24T04:05:40;11.07;;;9.97;;
2119;SDS011;1066;52.540;13.420;2023-04-24T04:08:58;4.87;;;4.57;;
2119;SDS011;1066;52.540;13.420;2023-04-24T04:12:15;6.10;;;5.63;;
2119;SDS011;1066;52.540;13.420;2023-04-24T04:15:33;6.23;;;5.73;;
2119;SDS011;1066;52.540;13.420;2023-04-24T04:18:52;5.70;;;5.30;;
2119;SDS011;1066;52.540;13.420;2023-04-24T04:22:13;5.93;;;5.43;;
2119;SDS011;1066;52.540;13.420;2023-04-24T04:25:33;6.63;;;5.30;;
2119;SDS011;1066;52.540;13.420;2023-04-24T04:28:52;6.13;;;5.60;;
2119;SDS011;1066;52.540;13.420;2023-04-24T04:32:13;7.00;;;5.37;;
2119;SDS011;1066;52.540;13.420;2023-04-24T04:35:31;5.73;;;5.10;;
2119;SDS011;1066;52.540;13.420;2023-04-24T04:38:49;5.73;;;5.23;;
2119;SDS011;1066;52.540;13.420;2023-04-24T04:42:07;5.60;;;5.20;;
2119;SDS011;1066;52.540;13.420;2023-04-24T04:45:24;5.90;;;5.40;;
2119;SDS011;1066;52.540;13.420;2023-04-24T04:48:42;6.30;;;5.80;;
2119;SDS011;1066;52.540;13.420;2023-04-24T04:52:00;8.17;;;7.33;;
2119;SDS011;1066;52.540;13.420;2023-04-24T04:55:18;7.77;;;5.00;;
2119;SDS011;1066;52.540;13.420;2023-04-24T04:58:36;7.33;;;6.47;;
2119;SDS011;1066;52.540;13.420;2023-04-24T05:01:54;6.70;;;6.00;;
2119;SDS011;1066;52.540;13.420;2023-04-24T05:05:12;7.00;;;6.40;;
2119;SDS011;1066;52.540;13.420;2023-04-24T05:08:30;8.07;;;7.30;;
2119;SDS011;1066;52.540;13.420;2023-04-24T05:11:52;5.50;;;5.00;;
2119;SDS011;1066;52.540;13.420;2023-04-24T05:15:10;6.10;;;5.50;;
2119;SDS011;1066;52.540;13.420;2023-04-24T05:18:28;6.83;;;6.13;;
2119;SDS011;1066;52.540;13.420;2023-04-24T05:21:45;5.37;;;4.83;;
2119;SDS011;1066;52.540;13.420;2023-04-24T05:25:03;5.60;;;5.10;;
2119;SDS011;1066;52.540;13.420;2023-04-24T05:28:21;5.50;;;5.00;;
2119;SDS011;1066;52.540;13.420;2023-04-24T05:31:39;4.63;;;4.20;;
2119;SDS011;1066;52.540;13.420;2023-04-24T05:34:57;6.13;;;5.53;;
2119;SDS011;1066;52.540;13.420;2023-04-24T05:38:15;7.07;;;5.50;;
2119;SDS011;1066;52.540;13.420;2023-04-24T05:41:33;6.87;;;5.37;;
2119;SDS011;1066;52.540;13.420;2023-04-24T05:44:51;4.10;;;3.80;;
2119;SDS011;1066;52.540;13.420;2023-04-24T05:48:09;6.60;;;5.97;;
2119;SDS011;1066;52.540;13.420;2023-04-24T05:51:27;5.00;;;4.50;;
2119;SDS011;1066;52.540;13.420;2023-04-24T05:54:45;7.83;;;6.77;;
2119;SDS011;1066;52.540;13.420;2023-04-24T05:58:03;5.20;;;3.93;;
2119;SDS011;1066;52.540;13.420;2023-04-24T06:01:21;4.07;;;3.40;;
2119;SDS011;1066;52.540;13.420;2023-04-24T06:04:38;5.20;;;4.23;;
2119;SDS011;1066;52.540;13.420;2023-04-24T06:07:56;5.07;;;3.30;;
2119;SDS011;1066;52.540;13.420;2023-04-24T06:11:14;4.97;;;3.13;;
2119;SDS011;1066;52.540;13.420;2023-04-24T06:14:33;2.73;;;2.53;;
2119;SDS011;1066;52.540;13.420;2023-04-24T06:17:55;3.40;;;3.00;;
2119;SDS011;1066;52.540;13.420;2023-04-24T06:21:15;3.97;;;3.33;;
2119;SDS011;1066;52.540;13.420;2023-04-24T06:24:33;5.13;;;3.30;;
2119;SDS011;1066;52.540;13.420;2023-04-24T06:27:51;3.40;;;3.07;;
2119;SDS011;1066;52.540;13.420;2023-04-24T06:31:09;4.00;;;2.83;;
2119;SDS011;1066;52.540;13.420;2023-04-24T06:34:27;4.00;;;3.60;;
2119;SDS011;1066;52.540;13.420;2023-04-24T06:37:45;3.50;;;3.20;;
2119;SDS011;1066;52.540;13.420;2023-04-24T06:41:03;5.07;;;2.70;;
2119;SDS011;1066;52.540;13.420;2023-04-24T06:44:21;3.67;;;2.63;;
2119;SDS011;1066;52.540;13.420;2023-04-24T06:47:39;4.10;;;3.23;;
2119;SDS011;1066;52.540;13.420;2023-04-24T06:50:57;2.83;;;2.63;;
2119;SDS011;1066;52.540;13.420;2023-04-24T06:54:15;2.60;;;2.40;;
2119;SDS011;1066;52.540;13.420;2023-04-24T06:57:35;2.77;;;2.47;;
2119;SDS011;1066;52.540;13.420;2023-04-24T07:00:53;4.63;;;2.00;;
2119;SDS011;1066;52.540;13.420;2023-04-24T07:04:11;2.60;;;2.27;;
2119;SDS011;1066;52.540;13.420;2023-04-24T07:07:29;2.70;;;1.83;;
2119;SDS011;1066;52.540;13.420;2023-04-24T07:10:49;4.40;;;2.20;;
2119;SDS011;1066;52.540;13.420;2023-04-24T07:14:07;2.13;;;1.90;;
2119;SDS011;1066;52.540;13.420;2023-04-24T07:17:25;2.67;;;2.20;;
2119;SDS011;1066;52.540;13.420;2023-04-24T07:20:43;1.73;;;1.60;;
2119;SDS011;1066;52.540;13.420;2023-04-24T07:24:01;5.77;;;2.93;;
2119;SDS011;1066;52.540;13.420;2023-04-24T07:27:19;1.93;;;1.73;;
2119;SDS011;1066;52.540;13.420;2023-04-24T07:30:37;2.37;;;1.70;;
2119;SDS011;1066;52.540;13.420;2023-04-24T07:33:55;1.80;;;1.70;;
2119;SDS011;1066;52.540;13.420;2023-04-24T07:37:13;2.00;;;1.30;;
2119;SDS011;1066;52.540;13.420;2023-04-24T07:40:31;1.87;;;1.10;;
2119;SDS011;1066;52.540;13.420;2023-04-24T07:43:49;2.50;;;2.10;;
2119;SDS011;1066;52.540;13.420;2023-04-24T07:47:07;5.03;;;2.00;;
2119;SDS011;1066;52.540;13.420;2023-04-24T07:50:25;1.30;;;1.10;;
2119;SDS011;1066;52.540;13.420;2023-04-24T07:53:43;1.67;;;1.03;;
2119;SDS011;1066;52.540;13.420;2023-04-24T07:57:02;1.80;;;1.10;;
2119;SDS011;1066;52.540;13.420;2023-04-24T08:00:21;2.40;;;1.40;;
2119;SDS011;1066;52.540;13.420;2023-04-24T08:03:39;2.53;;;1.40;;
2119;SDS011;1066;52.540;13.420;2023-04-24T08:06:58;2.90;;;1.20;;
2119;SDS011;1066;52.540;13.420;2023-04-24T08:10:17;1.50;;;1.20;;
2119;SDS011;1066;52.540;13.420;2023-04-24T08:13:36;4.53;;;1.90;;
2119;SDS011;1066;52.540;13.420;2023-04-24T08:16:54;2.23;;;1.30;;
2119;SDS011;1066;52.540;13.420;2023-04-24T08:20:12;2.27;;;1.20;;
2119;SDS011;1066;52.540;13.420;2023-04-24T08:23:30;2.10;;;1.33;;
2119;SDS011;1066;52.540;13.420;2023-04-24T08:26:48;2.70;;;1.40;;
2119;SDS011;1066;52.540;13.420;2023-04-24T08:30:06;1.13;;;0.90;;
2119;SDS011;1066;52.540;13.420;2023-04-24T08:33:24;1.50;;;1.20;;
2119;SDS011;1066;52.540;13.420;2023-04-24T08:36:42;1.60;;;1.20;;
2119;SDS011;1066;52.540;13.420;2023-04-24T08:40:01;1.27;;;1.10;;
2119;SDS011;1066;52.540;13.420;2023-04-24T08:43:20;2.13;;;1.93;;
2119;SDS011;1066;52.540;13.420;2023-04-24T08:46:41;1.60;;;1.00;;
2119;SDS011;1066;52.540;13.420;2023-04-24T08:50:00;1.80;;;1.40;;
2119;SDS011;1066;52.540;13.420;2023-04-24T08:53:18;1.70;;;1.10;;
2119;SDS011;1066;52.540;13.420;2023-04-24T08:56:37;1.50;;;1.10;;
2119;SDS011;1066;52.540;13.420;2023-04-24T08:59:55;1.60;;;1.17;;
2119;SDS011;1066;52.540;13.420;2023-04-24T09:03:16;1.23;;;1.13;;
2119;SDS011;1066;52.540;13.420;2023-04-24T09:06:39;1.20;;;0.90;;
2119;SDS011;1066;52.540;13.420;2023-04-24T09:09:57;2.03;;;1.23;;
2119;SDS011;1066;52.540;13.420;2023-04-24T09:13:15;1.93;;;1.17;;
2119;SDS011;1066;52.540;13.420;2023-04-24T09:16:34;1.27;;;1.10;;
2119;SDS011;1066;52.540;13.420;2023-04-24T09:19:53;2.60;;;1.40;;
2119;SDS011;1066;52.540;13.420;2023-04-24T09:23:29;1.20;;;1.10;;
2119;SDS011;1066;52.540;13.420;2023-04-24T09:26:58;1.70;;;1.27;;
2119;SDS011;1066;52.540;13.420;2023-04-24T09:30:20;2.07;;;1.30;;
2119;SDS011;1066;52.540;13.420;2023-04-24T09:33:53;1.70;;;1.60;;
2119;SDS011;1066;52.540;13.420;2023-04-24T09:37:12;1.57;;;1.23;;
2119;SDS011;1066;52.540;13.420;2023-04-24T09:40:36;1.73;;;1.50;;
2119;SDS011;1066;52.540;13.420;2023-04-24T09:43:54;2.13;;;1.40;;
2119;SDS011;1066;52.540;13.420;2023-04-24T09:47:14;1.70;;;1.40;;
2119;SDS011;1066;52.540;13.420;2023-04-24T09:50:36;1.40;;;1.30;;
2119;SDS011;1066;52.540;13.420;2023-04-24T09:54:05;3.70;;;1.73;;
2119;SDS011;1066;52.540;13.420;2023-04-24T09:57:30;2.77;;;1.70;;
2119;SDS011;1066;52.540;13.420;2023-04-24T10:00:55;2.13;;;1.40;;
2119;SDS011;1066;52.540;13.420;2023-04-24T10:07:37;2.13;;;1.80;;
2119;SDS011;1066;52.540;13.420;2023-04-24T10:10:58;1.80;;;1.70;;
2119;SDS011;1066;52.540;13.420;2023-04-24T10:14:19;1.60;;;1.30;;
2119;SDS011;1066;52.540;13.420;2023-04-24T10:17:38;1.83;;;1.70;;
2119;SDS011;1066;52.540;13.420;2023-04-24T10:20:57;1.60;;;1.50;;
2119;SDS011;1066;52.540;13.420;2023-04-24T10:24:17;3.53;;;1.40;;
2119;SDS011;1066;52.540;13.420;2023-04-24T10:27:35;5.40;;;1.77;;
2119;SDS011;1066;52.540;13.420;2023-04-24T10:30:54;1.50;;;1.40;;
2119;SDS011;1066;52.540;13.420;2023-04-24T10:34:13;1.50;;;1.40;;
2119;SDS011;1066;52.540;13.420;2023-04-24T10:37:43;2.70;;;2.07;;
2119;SDS011;1066;52.540;13.420;2023-04-24T10:41:11;3.10;;;1.90;;
2119;SDS011;1066;52.540;13.420;2023-04-24T10:44:39;1.53;;;1.10;;
2119;SDS011;1066;52.540;13.420;2023-04-24T10:47:58;2.40;;;1.60;;
2119;SDS011;1066;52.540;13.420;2023-04-24T10:51:21;2.23;;;1.80;;
2119;SDS011;1066;52.540;13.420;2023-04-24T10:54:42;2.57;;;1.60;;
2119;SDS011;1066;52.540;13.420;2023-04-24T10:58:05;1.90;;;1.50;;
2119;SDS011;1066;52.540;13.420;2023-04-24T11:01:27;2.60;;;1.73;;
2119;SDS011;1066;52.540;13.420;2023-04-24T11:04:49;1.67;;;1.53;;
2119;SDS011;1066;52.540;13.420;2023-04-24T11:08:23;1.60;;;1.27;;
2119;SDS011;1066;52.540;13.420;2023-04-24T11:11:44;2.33;;;2.13;;
2119;SDS011;1066;52.540;13.420;2023-04-24T11:15:02;2.33;;;2.13;;
2119;SDS011;1066;52.540;13.420;2023-04-24T11:18:40;3.00;;;1.57;;
2119;SDS011;1066;52.540;13.420;2023-04-24T11:22:00;2.77;;;2.50;;
2119;SDS011;1066;52.540;13.420;2023-04-24T11:25:19;3.10;;;1.70;;
2119;SDS011;1066;52.540;13.420;2023-04-24T11:28:50;3.90;;;2.17;;
2119;SDS011;1066;52.540;13.420;2023-04-24T11:35:39;3.10;;;1.90;;
2119;SDS011;1066;52.540;13.420;2023-04-24T11:38:57;4.30;;;3.90;;
2119;SDS011;1066;52.540;13.420;2023-04-24T11:42:16;3.57;;;2.57;;
2119;SDS011;1066;52.540;13.420;2023-04-24T11:45:34;4.63;;;2.67;;
2119;SDS011;1066;52.540;13.420;2023-04-24T11:48:53;3.57;;;3.27;;
2119;SDS011;1066;52.540;13.420;2023-04-24T11:52:14;3.93;;;3.40;;
2119;SDS011;1066;52.540;13.420;2023-04-24T11:55:32;1.60;;;1.43;;
2119;SDS011;1066;52.540;13.420;2023-04-24T11:58:53;2.03;;;1.70;;
2119;SDS011;1066;52.540;13.420;2023-04-24T12:05:39;7.53;;;5.30;;
2119;SDS011;1066;52.540;13.420;2023-04-24T12:08:57;3.47;;;2.23;;
2119;SDS011;1066;52.540;13.420;2023-04-24T12:12:20;2.60;;;1.80;;
2119;SDS011;1066;52.540;13.420;2023-04-24T12:15:39;2.20;;;1.40;;
2119;SDS011;1066;52.540;13.420;2023-04-24T12:18:57;3.10;;;1.60;;
2119;SDS011;1066;52.540;13.420;2023-04-24T12:22:15;2.20;;;1.90;;
2119;SDS011;1066;52.540;13.420;2023-04-24T12:25:34;2.90;;;1.50;;
2119;SDS011;1066;52.540;13.420;2023-04-24T12:28:52;4.70;;;3.40;;
2119;SDS011;1066;52.540;13.420;2023-04-24T12:32:23;3.23;;;1.63;;
2119;SDS011;1066;52.540;13.420;2023-04-24T12:35:44;3.53;;;2.83;;
2119;SDS011;1066;52.540;13.420;2023-04-24T12:39:02;2.07;;;1.43;;
2119;SDS011;1066;52.540;13.420;2023-04-24T12:42:27;1.30;;;1.10;;
2119;SDS011;1066;52.540;13.420;2023-04-24T12:45:45;7.63;;;2.80;;
2119;SDS011;1066;52.540;13.420;2023-04-24T12:49:03;4.20;;;2.37;;
2119;SDS011;1066;52.540;13.420;2023-04-24T12:52:25;2.43;;;2.00;;
2119;SDS011;1066;52.540;13.420;2023-04-24T12:55:43;2.07;;;1.77;;
2119;SDS011;1066;52.540;13.420;2023-04-24T12:59:04;2.93;;;2.67;;
2119;SDS011;1066;52.540;13.420;2023-04-24T13:02:23;4.20;;;2.90;;
2119;SDS011;1066;52.540;13.420;2023-04-24T13:05:41;2.03;;;1.60;;
2119;SDS011;1066;52.540;13.420;2023-04-24T13:08:59;2.80;;;2.13;;
2119;SDS011;1066;52.540;13.420;2023-04-24T13:12:18;3.47;;;2.60;;
2119;SDS011;1066;52.540;13.420;2023-04-24T13:15:36;3.90;;;2.20;;
2119;SDS011;1066;52.540;13.420;2023-04-24T13:18:53;2.10;;;1.70;;
2119;SDS011;1066;52.540;13.420;2023-04-24T13:22:12;2.40;;;2.20;;
2119;SDS011;1066;52.540;13.420;2023-04-24T13:25:34;2.17;;;1.50;;
2119;SDS011;1066;52.540;13.420;2023-04-24T13:28:52;2.40;;;2.00;;
2119;SDS011;1066;52.540;13.420;2023-04-24T13:32:10;2.43;;;2.23;;
2119;SDS011;1066;52.540;13.420;2023-04-24T13:35:28;2.20;;;2.00;;
2119;SDS011;1066;52.540;13.420;2023-04-24T13:38:46;4.97;;;2.10;;
2119;SDS011;1066;52.540;13.420;2023-04-24T13:42:06;1.70;;;1.30;;
2119;SDS011;1066;52.540;13.420;2023-04-24T13:45:24;2.40;;;2.17;;
2119;SDS011;1066;52.540;13.420;2023-04-24T13:48:41;2.30;;;2.10;;
2119;SDS011;1066;52.540;13.420;2023-04-24T13:52:00;2.83;;;2.13;;
2119;SDS011;1066;52.540;13.420;2023-04-24T13:55:19;2.47;;;1.40;;
2119;SDS011;1066;52.540;13.420;2023-04-24T13:58:38;1.83;;;1.63;;
2119;SDS011;1066;52.540;13.420;2023-04-24T14:01:56;3.97;;;1.90;;
2119;SDS011;1066;52.540;13.420;2023-04-24T14:05:14;4.80;;;2.50;;
2119;SDS011;1066;52.540;13.420;2023-04-24T14:08:33;1.97;;;1.80;;
2119;SDS011;1066;52.540;13.420;2023-04-24T14:11:51;3.40;;;1.60;;
2119;SDS011;1066;52.540;13.420;2023-04-24T14:15:09;2.77;;;1.87;;
2119;SDS011;1066;52.540;13.420;2023-04-24T14:18:28;2.03;;;1.93;;
2119;SDS011;1066;52.540;13.420;2023-04-24T14:21:46;1.57;;;1.47;;
2119;SDS011;1066;52.540;13.420;2023-04-24T14:25:04;3.57;;;2.93;;
2119;SDS011;1066;52.540;13.420;2023-04-24T14:28:25;3.17;;;2.30;;
2119;SDS011;1066;52.540;13.420;2023-04-24T14:31:44;2.60;;;2.40;;
2119;SDS011;1066;52.540;13.420;2023-04-24T14:35:02;1.83;;;1.70;;
2119;SDS011;1066;52.540;13.420;2023-04-24T14:38:21;2.13;;;1.73;;
2119;SDS011;1066;52.540;13.420;2023-04-24T14:41:39;2.17;;;1.90;;
2119;SDS011;1066;52.540;13.420;2023-04-24T14:44:57;2.20;;;2.00;;
2119;SDS011;1066;52.540;13.420;2023-04-24T14:48:14;3.40;;;2.03;;
2119;SDS011;1066;52.540;13.420;2023-04-24T14:51:34;1.50;;;1.40;;
2119;SDS011;1066;52.540;13.420;2023-04-24T14:54:52;2.00;;;1.80;;
2119;SDS011;1066;52.540;13.420;2023-04-24T14:58:10;2.40;;;1.77;;
2119;SDS011;1066;52.540;13.420;2023-04-24T15:01:29;2.23;;;1.83;;
2119;SDS011;1066;52.540;13.420;2023-04-24T15:04:46;2.87;;;1.87;;
2119;SDS011;1066;52.540;13.420;2023-04-24T15:08:04;1.80;;;1.70;;
2119;SDS011;1066;52.540;13.420;2023-04-24T15:11:22;2.70;;;1.90;;
2119;SDS011;1066;52.540;13.420;2023-04-24T15:14:40;2.07;;;1.63;;
2119;SDS011;1066;52.540;13.420;2023-04-24T15:17:58;2.17;;;1.80;;
2119;SDS011;1066;52.540;13.420;2023-04-24T15:21:16;2.07;;;1.50;;
2119;SDS011;1066;52.540;13.420;2023-04-24T15:24:34;3.20;;;1.60;;
2119;SDS011;1066;52.540;13.420;2023-04-24T15:27:52;1.70;;;1.57;;
2119;SDS011;1066;52.540;13.420;2023-04-24T15:31:11;2.27;;;1.97;;
2119;SDS011;1066;52.540;13.420;2023-04-24T15:34:29;2.30;;;2.10;;
2119;SDS011;1066;52.540;13.420;2023-04-24T15:37:47;1.90;;;1.80;;
2119;SDS011;1066;52.540;13.420;2023-04-24T15:41:05;2.90;;;2.23;;
2119;SDS011;1066;52.540;13.420;2023-04-24T15:44:24;2.90;;;2.60;;
2119;SDS011;1066;52.540;13.420;2023-04-24T15:47:44;2.93;;;2.47;;
2119;SDS011;1066;52.540;13.420;2023-04-24T15:51:03;2.67;;;2.27;;
2119;SDS011;1066;52.540;13.420;2023-04-24T15:54:21;2.70;;;2.30;;
2119;SDS011;1066;52.540;13.420;2023-04-24T15:57:39;3.13;;;1.80;;
2119;SDS011;1066;52.540;13.420;2023-04-24T16:00:57;3.10;;;2.30;;
2119;SDS011;1066;52.540;13.420;2023-04-24T16:04:15;2.77;;;2.00;;
2119;SDS011;1066;52.540;13.420;2023-04-24T16:07:33;3.50;;;1.70;;
2119;SDS011;1066;52.540;13.420;2023-04-24T16:10:51;5.43;;;2.90;;
2119;SDS011;1066;52.540;13.420;2023-04-24T16:14:09;3.20;;;2.37;;
2119;SDS011;1066;52.540;13.420;2023-04-24T16:17:27;4.70;;;2.43;;
2119;SDS011;1066;52.540;13.420;2023-04-24T16:20:46;3.33;;;3.03;;
2119;SDS011;1066;52.540;13.420;2023-04-24T16:24:04;2.47;;;2.27;;
2119;SDS011;1066;52.540;13.420;2023-04-24T16:27:22;3.13;;;2.37;;
2119;SDS011;1066;52.540;13.420;2023-04-24T16:30:41;2.37;;;2.17;;
2119;SDS011;1066;52.540;13.420;2023-04-24T16:33:58;1.87;;;1.77;;
2119;SDS011;1066;52.540;13.420;2023-04-24T16:37:16;2.60;;;2.30;;
2119;SDS011;1066;52.540;13.420;2023-04-24T16:40:35;2.50;;;2.10;;
2119;SDS011;1066;52.540;13.420;2023-04-24T16:43:53;2.50;;;2.27;;
2119;SDS011;1066;52.540;13.420;2023-04-24T16:47:11;3.07;;;2.30;;
2119;SDS011;1066;52.540;13.420;2023-04-24T16:50:30;2.37;;;2.17;;
2119;SDS011;1066;52.540;13.420;2023-04-24T16:53:48;2.40;;;2.20;;
2119;SDS011;1066;52.540;13.420;2023-04-24T16:57:06;1.90;;;1.70;;
2119;SDS011;1066;52.540;13.420;2023-04-24T17:00:24;4.20;;;1.70;;
2119;SDS011;1066;52.540;13.420;2023-04-24T17:03:42;1.80;;;1.67;;
2119;SDS011;1066;52.540;13.420;2023-04-24T17:07:00;2.83;;;2.20;;
2119;SDS011;1066;52.540;13.420;2023-04-24T17:10:18;4.30;;;1.60;;
2119;SDS011;1066;52.540;13.420;2023-04-24T17:13:36;1.67;;;1.47;;
2119;SDS011;1066;52.540;13.420;2023-04-24T17:16:54;2.73;;;2.53;;
2119;SDS011;1066;52.540;13.420;2023-04-24T17:20:13;3.27;;;2.10;;
2119;SDS011;1066;52.540;13.420;2023-04-24T17:23:31;2.87;;;2.00;;
2119;SDS011;1066;52.540;13.420;2023-04-24T17:26:49;1.97;;;1.77;;
2119;SDS011;1066;52.540;13.420;2023-04-24T17:30:07;3.30;;;2.60;;
2119;SDS011;1066;52.540;13.420;2023-04-24T17:33:25;2.67;;;1.73;;
2119;SDS011;1066;52.540;13.420;2023-04-24T17:36:43;2.90;;;2.03;;
2119;SDS011;1066;52.540;13.420;2023-04-24T17:40:02;1.70;;;1.60;;
2119;SDS011;1066;52.540;13.420;2023-04-24T17:43:20;2.23;;;2.00;;
2119;SDS011;1066;52.540;13.420;2023-04-24T17:46:38;3.10;;;2.27;;
2119;SDS011;1066;52.540;13.420;2023-04-24T17:49:56;2.20;;;1.90;;
2119;SDS011;1066;52.540;13.420;2023-04-24T17:53:14;2.77;;;2.47;;
2119;SDS011;1066;52.540;13.420;2023-04-24T17:56:32;4.67;;;2.67;;
2119;SDS011;1066;52.540;13.420;2023-04-24T17:59:50;2.63;;;1.80;;
2119;SDS011;1066;52.540;13.420;2023-04-24T18:03:08;4.03;;;2.67;;
2119;SDS011;1066;52.540;13.420;2023-04-24T18:06:26;2.77;;;2.20;;
2119;SDS011;1066;52.540;13.420;2023-04-24T18:09:44;2.90;;;2.30;;
2119;SDS011;1066;52.540;13.420;2023-04-24T18:13:02;2.53;;;1.93;;
2119;SDS011;1066;52.540;13.420;2023-04-24T18:16:20;2.00;;;1.80;;
2119;SDS011;1066;52.540;13.420;2023-04-24T18:19:38;3.20;;;2.70;;
2119;SDS011;1066;52.540;13.420;2023-04-24T18:22:56;2.00;;;1.80;;
2119;SDS011;1066;52.540;13.420;2023-04-24T18:26:14;2.33;;;2.00;;
2119;SDS011;1066;52.540;13.420;2023-04-24T18:29:32;14.63;;;2.87;;
2119;SDS011;1066;52.540;13.420;2023-04-24T18:32:55;2.50;;;2.23;;
2119;SDS011;1066;52.540;13.420;2023-04-24T18:36:13;2.63;;;1.60;;
2119;SDS011;1066;52.540;13.420;2023-04-24T18:39:31;5.03;;;1.60;;
2119;SDS011;1066;52.540;13.420;2023-04-24T18:42:49;1.90;;;1.13;;
2119;SDS011;1066;52.540;13.420;2023-04-24T18:46:09;1.47;;;1.37;;
2119;SDS011;1066;52.540;13.420;2023-04-24T18:49:27;2.13;;;1.57;;
2119;SDS011;1066;52.540;13.420;2023-04-24T18:52:45;2.67;;;1.67;;
2119;SDS011;1066;52.540;13.420;2023-04-24T18:56:07;1.27;;;1.07;;
2119;SDS011;1066;52.540;13.420;2023-04-24T18:59:25;2.60;;;1.50;;
2119;SDS011;1066;52.540;13.420;2023-04-24T19:02:43;2.43;;;1.30;;
2119;SDS011;1066;52.540;13.420;2023-04-24T19:06:01;1.80;;;1.50;;
2119;SDS011;1066;52.540;13.420;2023-04-24T19:09:19;1.87;;;1.37;;
2119;SDS011;1066;52.540;13.420;2023-04-24T19:12:37;2.10;;;1.43;;
2119;SDS011;1066;52.540;13.420;2023-04-24T19:15:55;3.50;;;2.20;;
2119;SDS011;1066;52.540;13.420;2023-04-24T19:19:16;2.13;;;1.83;;
2119;SDS011;1066;52.540;13.420;2023-04-24T19:22:34;2.30;;;1.30;;
2119;SDS011;1066;52.540;13.420;2023-04-24T19:25:52;2.83;;;2.33;;
2119;SDS011;1066;52.540;13.420;2023-04-24T19:29:10;5.77;;;2.43;;
2119;SDS011;1066;52.540;13.420;2023-04-24T19:32:28;3.30;;;2.57;;
2119;SDS011;1066;52.540;13.420;2023-04-24T19:35:46;3.00;;;1.83;;
2119;SDS011;1066;52.540;13.420;2023-04-24T19:39:04;2.07;;;1.50;;
2119;SDS011;1066;52.540;13.420;2023-04-24T19:42:22;4.13;;;1.43;;
2119;SDS011;1066;52.540;13.420;2023-04-24T19:45:40;4.23;;;1.67;;
2119;SDS011;1066;52.540;13.420;2023-04-24T19:48:58;4.30;;;3.40;;
2119;SDS011;1066;52.540;13.420;2023-04-24T19:52:19;2.30;;;2.00;;
2119;SDS011;1066;52.540;13.420;2023-04-24T19:55:36;2.40;;;1.90;;
2119;SDS011;1066;52.540;13.420;2023-04-24T19:58:54;1.60;;;1.50;;
2119;SDS011;1066;52.540;13.420;2023-04-24T20:02:12;2.53;;;2.10;;
2119;SDS011;1066;52.540;13.420;2023-04-24T20:05:30;1.97;;;1.60;;
2119;SDS011;1066;52.540;13.420;2023-04-24T20:08:48;2.30;;;2.07;;
2119;SDS011;1066;52.540;13.420;2023-04-24T20:12:06;4.30;;;2.70;;
2119;SDS011;1066;52.540;13.420;2023-04-24T20:15:24;4.60;;;2.43;;
2119;SDS011;1066;52.540;13.420;2023-04-24T20:18:42;2.37;;;1.93;;
2119;SDS011;1066;52.540;13.420;2023-04-24T20:22:00;3.73;;;2.60;;
2119;SDS011;1066;52.540;13.420;2023-04-24T20:25:18;4.70;;;2.33;;